Terminal Aerodrome Forecast
Issued by NWS Twin Cities, MN

Home | Current Version | Previous Version | Graphics & Text | Print | Product List | Glossary On
Versions: 1 2 3 4 5 6 7 8 9 10 11 12 13 14 15 16 17 18 19 20 21 22
000
FTUS43 KMPX 210520
TAFEAU
TAF
KEAU 210520Z 2106/2206 12004KT 2SM BR OVC003
     FM210900 09005KT 1SM -DZ BR OVC002
     FM211300 08006KT 1 1/2SM -RA BR OVC003
     FM220000 18003KT 2SM -DZ BR OVC004
     FM220300 VRB03KT 3/4SM BR VV003=

USA.gov is the U.S. government's official web portal to all federal, state and local government web resources and services.